Heloise — 3FLA7 — position and weather

sailwx.info

Track history (hours):
 
Tides and Currents Weather Stations Pressure Air Temp Water Temp Dewpoint Dewpoint Depression Visibility Wind Speed Wind Dir Waves Ship Positions

Heloise

Last reported at 2014-Sep-16 00:33 UTC. Time now 2014-Sep-16 19:35 UTC.
Position N 35°57' W 005°54'.

Length 186 m; draft 8 m.

Type: Cargo ship. MMSI: 352302000.

Date/timePositionNaut miles runAvg speedWind from/ knotsBaromVisibWave heightAir tempDewpointWater temp
2014-Sep-16 00:33N 35°57' W 005°54'247 9.1
2014-Sep-14 21:25N 36°37' W 000°52'1113.1
2014-Sep-14 20:32N 36°40' W 000°38'1513.3
2014-Sep-14 19:26N 36°42' W 000°20'1213.3
2014-Sep-14 18:32N 36°44' W 000°05'1313.3
2014-Sep-14 17:33N 36°47' E 000°11'1312.9
2014-Sep-14 16:34N 36°49' E 000°26'1312.5
2014-Sep-14 15:34N 36°51' E 000°42'1212.2
2014-Sep-14 14:34N 36°54' E 000°57'1312.2
2014-Sep-14 13:32N 36°56' E 001°12'1212.6
2014-Sep-14 12:33N 36°58' E 001°27'1312.7
2014-Sep-14 11:32N 37°01' E 001°43'1313.1
2014-Sep-14 10:33N 37°03' E 001°59'1513.3
2014-Sep-14 09:27N 37°06' E 002°17'1213.7
2014-Sep-14 08:33N 37°08' E 002°32'1413.6
2014-Sep-14 07:33N 37°11' E 002°49'1413.7
2014-Sep-14 06:33N 37°13' E 003°06'44312.8
2014-Sep-12 20:03N 36°55' E 012°21'713.3
2014-Sep-12 19:33N 36°52' E 012°28'1413.8
2014-Sep-12 18:32N 36°44' E 012°43'1513.4
2014-Sep-12 17:25N 36°36' E 012°59'1213.3
2014-Sep-12 16:31N 36°31' E 013°12'1512.3
2014-Sep-12 15:16N 36°28' E 013°31'1012.5
2014-Sep-12 14:28N 36°28' E 013°43'1212.6
2014-Sep-12 13:32N 36°27' E 013°58'1312.7
2014-Sep-12 12:32N 36°26' E 014°14'1413.4
2014-Sep-12 11:31N 36°25' E 014°31'1313.2
2014-Sep-12 10:31N 36°25' E 014°47'43912.8
2014-Sep-11 00:17N 36°37' E 023°53'1114.0
2014-Sep-10 23:31N 36°45' E 024°02'1414.1
2014-Sep-10 22:32N 36°59' E 024°06'1514.2
2014-Sep-10 21:29N 37°13' E 024°11'1313.8
2014-Sep-10 20:33N 37°25' E 024°17'12513.8
2014-Sep-10 11:26N 39°17' E 025°28'8113.2
2014-Sep-10 05:21N 40°19' E 026°36'1411.8
2014-Sep-10 04:09N 40°28' E 026°50'  
Track history (hours):
 
Tides and Currents Weather Stations Pressure Air Temp Water Temp Dewpoint Dewpoint Depression Visibility Wind Speed Wind Dir Waves Ship Positions

Heloise

Last reported at 2014-Sep-16 00:33 UTC. Time now 2014-Sep-16 19:35 UTC.
Position N 35°57' W 005°54'.

Length 186 m; draft 8 m.

Type: Cargo ship. MMSI: 352302000.

Date/timePositionNaut miles runAvg speedWind from/ knotsBaromVisibWave heightAir tempDewpointWater temp
2014-Sep-16 00:33N 35°57' W 005°54'247 9.1
2014-Sep-14 21:25N 36°37' W 000°52'1113.1
2014-Sep-14 20:32N 36°40' W 000°38'1513.3
2014-Sep-14 19:26N 36°42' W 000°20'1213.3
2014-Sep-14 18:32N 36°44' W 000°05'1313.3
2014-Sep-14 17:33N 36°47' E 000°11'1312.9
2014-Sep-14 16:34N 36°49' E 000°26'1312.5
2014-Sep-14 15:34N 36°51' E 000°42'1212.2
2014-Sep-14 14:34N 36°54' E 000°57'1312.2
2014-Sep-14 13:32N 36°56' E 001°12'1212.6
2014-Sep-14 12:33N 36°58' E 001°27'1312.7
2014-Sep-14 11:32N 37°01' E 001°43'1313.1
2014-Sep-14 10:33N 37°03' E 001°59'1513.3
2014-Sep-14 09:27N 37°06' E 002°17'1213.7
2014-Sep-14 08:33N 37°08' E 002°32'1413.6
2014-Sep-14 07:33N 37°11' E 002°49'1413.7
2014-Sep-14 06:33N 37°13' E 003°06'44312.8
2014-Sep-12 20:03N 36°55' E 012°21'713.3
2014-Sep-12 19:33N 36°52' E 012°28'1413.8
2014-Sep-12 18:32N 36°44' E 012°43'1513.4
2014-Sep-12 17:25N 36°36' E 012°59'1213.3
2014-Sep-12 16:31N 36°31' E 013°12'1512.3
2014-Sep-12 15:16N 36°28' E 013°31'1012.5
2014-Sep-12 14:28N 36°28' E 013°43'1212.6
2014-Sep-12 13:32N 36°27' E 013°58'1312.7
2014-Sep-12 12:32N 36°26' E 014°14'1413.4
2014-Sep-12 11:31N 36°25' E 014°31'1313.2
2014-Sep-12 10:31N 36°25' E 014°47'43912.8
2014-Sep-11 00:17N 36°37' E 023°53'1114.0
2014-Sep-10 23:31N 36°45' E 024°02'1414.1
2014-Sep-10 22:32N 36°59' E 024°06'1514.2
2014-Sep-10 21:29N 37°13' E 024°11'1313.8
2014-Sep-10 20:33N 37°25' E 024°17'12513.8
2014-Sep-10 11:26N 39°17' E 025°28'8113.2
2014-Sep-10 05:21N 40°19' E 026°36'1411.8
2014-Sep-10 04:09N 40°28' E 026°50'  

Dump ship's entire track history